Ellinwood, KS (67526)

10:28 AM CDT on July 30, 2016 (GMT -0500)
Ellinwood High School | | Change Station

Elev 1811 ft 38.36 °N, 98.58 °W | Updated 0 second ago

Mostly Cloudy
Mostly Cloudy
74.8 °F
Feels Like 75 °F
N
6.9
Wind Variable Wind from SE
Gusts 9.0 mph

Today
High -- | Low -- °F
--% Chance of Precip.
Yesterday
High -- | Low -- °F
Precip. -- in
Pressure 30.00 in
Visibility 10.0 miles
Clouds Mostly Cloudy 9000 ft
Heat Index 75 °F
Dew Point 68 °F
Humidity 81%
Rainfall 0.04 in
Snow Depth Not available.
6:35 AM 8:45 PM
Waning Crescent, 12% visible
METAR KGBD 301515Z AUTO 18010KT 10SM BKN090 24/18 A3000 RMK AO1
Pressure 30.00 in
Visibility 10.0 miles
Clouds Mostly Cloudy 9000 ft
Heat Index 75 °F
Dew Point 68 °F
Humidity 81%
Rainfall 0.04 in
Snow Depth Not available.
6:35 AM 8:45 PM
Waning Crescent, 12% visible
METAR KGBD 301515Z AUTO 18010KT 10SM BKN090 24/18 A3000 RMK AO1

10-Day Weather Forecast

Almanac

Astronomy

Jul. 30, 2016 Rise Set
Actual Time
Civil Twilight
Nautical Twilight
Astronomical Twilight
Moon
Length of Visible Light
Length of Day
Tomorrow will be .
, % of the Moon is Illuminated

Today's Extremes

State Highs State Lows

Community

WunderPhotos

Upload Photos

1,928,585 photos uploaded!

WunderBlog® & News

Nearby

Air Quality

  Air Quality AQ Index Pollutant
Not available.

Snow Depth

Station Depth Elevation

Earthquake Activity

City Distance Mag. Time & Date
Minimum magnitude displayed is 2.5.

Coastal Water Temperatures

Place Temperature

Stations

Nearby Weather Stations

Station Location Temp. Windchill Dew Point Humidity Wind Precip. Elev Updated Type
                   

Watches & Warnings

There are currently no watches in effect.